Alder, WA

4:16 AM PDT on October 20, 2014 (GMT -0700)
Triangle Marsh | Change Station
CLOSE
Current Station
Personal Weather Station
Location: Eatonville, WA
Elevation: 757 ft
Nearby Weather Stations

Elev 757 ft 46.86 °N, 122.29 °W | Updated 10 seconds ago

Rain
Rain
57.4 °F
Feels Like 57.4 °F
N
6.0
Wind Variable Wind from North
Gusts 7.0 mph

Today
High -- | Low -- °F
--% Chance of Precip.
Yesterday
High -- | Low -- °F
Precip. -- in
7:34 AM 6:12 PM
Waning Crescent, 11% visible
Pressure 29.71 in
Visibility 10.0 miles
Clouds Overcast 4200 ft
Dew Point 49 °F
Humidity 74%
Rainfall 0.05 in
Snow Depth Not available.
UV 0 out of 12
Pollen .40 out of 12
PM2.5 Good
Flu Activity Sporadic
METAR KGRF 201058Z AUTO 08002KT 10SM DZ OVC042 14/14 A2970 RMK AO2 RAE1001B1037E1040DZB1001 SLP060 P0002 T01420140 $

More Conditions Fewer Conditions

Pressure 29.71 in
Visibility 10.0 miles
Clouds Overcast 4200 ft
Dew Point 49 °F
Humidity 74%
Rainfall 0.05 in
Snow Depth Not available.
UV 0 out of 12
Pollen .40 out of 12
PM2.5 Good
Flu Activity Sporadic
METAR KGRF 201058Z AUTO 08002KT 10SM DZ OVC042 14/14 A2970 RMK AO2 RAE1001B1037E1040DZB1001 SLP060 P0002 T01420140 $

More Conditions Fewer Conditions

10-Day Weather Forecast

Almanac

Astronomy

Oct. 20, 2014 Rise Set
Actual Time 7:34 AM PDT 6:12 PM PDT
Civil Twilight 7:03 AM PDT 6:43 PM PDT
Nautical Twilight 6:28 AM PDT 7:18 PM PDT
Astronomical Twilight 5:52 AM PDT 7:53 PM PDT
Moon 4:16 AM PDT 4:47 PM PDT
Length of Visible Light 11h 40m
Length of Day
10h 38m
Waning Crescent, 11% of the Moon is Illuminated
Today
Waning Crescent
Oct 23
New
Oct 30
First Quarter
Nov 6
Full
Nov 14
Last Quarter

Today's Extremes

State Highs State Lows

Community

WunderPhotos

Upload Photos

1,763,338 photos uploaded!

Nearby

Air Quality

  Air Quality AQ Index Pollutant
Yesterday Good
OZONE
Yesterday Good
PM2.5
Current Good
PM2.5
Monday Good
PM2.5
Tuesday Good
PM2.5

Snow Depth

Station Depth Elevation
Morse Lake 0 in 5400 ft
Spirit Lake 0 in 3120 ft
Pigtail Peak 0 in 5900 ft
Mount Gardner 0 in 3000 ft
Sheep Canyon 0 in 4030 ft

Earthquake Activity

City Distance Mag. Time & Date
No recent earthquake activity has been reported nearby.
Minimum magnitude displayed is 2.5.

Coastal Water Temperatures

Place Temperature
Port Townsend, WA 53.1 °F
Seattle, WA 55.0 °F
Friday Harbor, WA 51.1 °F
Tacoma, WA 55.0 °F

Nearby Weather Stations